sensor_id;sensor_type;location;lat;lon;timestamp;temperature;humidity
20700;DHT22;10511;51.232;9.420;2024-03-02T00:01:19;6.80;99.90
20700;DHT22;10511;51.232;9.420;2024-03-02T00:03:47;6.70;99.90
20700;DHT22;10511;51.232;9.420;2024-03-02T00:06:18;6.70;99.90
20700;DHT22;10511;51.232;9.420;2024-03-02T00:08:46;6.70;99.90
20700;DHT22;10511;51.232;9.420;2024-03-02T00:11:13;6.60;99.90
20700;DHT22;10511;51.232;9.420;2024-03-02T00:13:41;6.70;99.90
20700;DHT22;10511;51.232;9.420;2024-03-02T00:16:08;6.60;99.90
20700;DHT22;10511;51.232;9.420;2024-03-02T00:18:38;6.60;99.90
20700;DHT22;10511;51.232;9.420;2024-03-02T00:21:06;6.50;99.90
20700;DHT22;10511;51.232;9.420;2024-03-02T00:23:35;6.40;99.90
20700;DHT22;10511;51.232;9.420;2024-03-02T00:26:02;6.40;99.90
20700;DHT22;10511;51.232;9.420;2024-03-02T00:28:31;6.50;99.90
20700;DHT22;10511;51.232;9.420;2024-03-02T00:31:02;6.50;99.90
20700;DHT22;10511;51.232;9.420;2024-03-02T00:33:32;6.50;99.90
20700;DHT22;10511;51.232;9.420;2024-03-02T00:36:01;6.50;99.90
20700;DHT22;10511;51.232;9.420;2024-03-02T00:38:27;6.60;99.90
20700;DHT22;10511;51.232;9.420;2024-03-02T00:40:54;6.60;99.90
20700;DHT22;10511;51.232;9.420;2024-03-02T00:43:47;6.60;99.90
20700;DHT22;10511;51.232;9.420;2024-03-02T00:46:18;6.60;99.90
20700;DHT22;10511;51.232;9.420;2024-03-02T00:48:53;6.60;99.90
20700;DHT22;10511;51.232;9.420;2024-03-02T00:51:23;6.50;99.90
20700;DHT22;10511;51.232;9.420;2024-03-02T00:53:50;6.40;99.90
20700;DHT22;10511;51.232;9.420;2024-03-02T00:56:18;6.30;99.90
20700;DHT22;10511;51.232;9.420;2024-03-02T00:58:46;6.30;99.90
20700;DHT22;10511;51.232;9.420;2024-03-02T01:01:14;6.20;99.90
20700;DHT22;10511;51.232;9.420;2024-03-02T01:03:42;6.20;99.90
20700;DHT22;10511;51.232;9.420;2024-03-02T01:06:09;6.30;99.90
20700;DHT22;10511;51.232;9.420;2024-03-02T01:08:37;6.20;99.90
20700;DHT22;10511;51.232;9.420;2024-03-02T01:11:05;6.30;99.90
20700;DHT22;10511;51.232;9.420;2024-03-02T01:13:31;6.30;99.90
20700;DHT22;10511;51.232;9.420;2024-03-02T01:15:59;6.20;99.90
20700;DHT22;10511;51.232;9.420;2024-03-02T01:18:26;6.30;99.90
20700;DHT22;10511;51.232;9.420;2024-03-02T01:20:53;6.40;99.90
20700;DHT22;10511;51.232;9.420;2024-03-02T01:23:21;6.40;99.90
20700;DHT22;10511;51.232;9.420;2024-03-02T01:25:49;6.50;99.90
20700;DHT22;10511;51.232;9.420;2024-03-02T01:28:17;6.60;99.90
20700;DHT22;10511;51.232;9.420;2024-03-02T01:30:44;6.60;99.90
20700;DHT22;10511;51.232;9.420;2024-03-02T01:33:11;6.50;99.90
20700;DHT22;10511;51.232;9.420;2024-03-02T01:35:38;6.50;99.90
20700;DHT22;10511;51.232;9.420;2024-03-02T01:38:05;6.50;99.90
20700;DHT22;10511;51.232;9.420;2024-03-02T01:40:33;6.50;99.90
20700;DHT22;10511;51.232;9.420;2024-03-02T01:43:01;6.50;99.90
20700;DHT22;10511;51.232;9.420;2024-03-02T01:45:29;6.50;99.90
20700;DHT22;10511;51.232;9.420;2024-03-02T01:47:55;6.50;99.90
20700;DHT22;10511;51.232;9.420;2024-03-02T01:50:26;6.50;99.90
20700;DHT22;10511;51.232;9.420;2024-03-02T01:52:54;6.40;99.90
20700;DHT22;10511;51.232;9.420;2024-03-02T01:55:21;6.20;99.90
20700;DHT22;10511;51.232;9.420;2024-03-02T01:57:48;6.20;99.90
20700;DHT22;10511;51.232;9.420;2024-03-02T02:00:18;6.00;99.90
20700;DHT22;10511;51.232;9.420;2024-03-02T02:02:45;6.00;99.90
20700;DHT22;10511;51.232;9.420;2024-03-02T02:05:12;6.10;99.90
20700;DHT22;10511;51.232;9.420;2024-03-02T02:07:40;6.00;99.90
20700;DHT22;10511;51.232;9.420;2024-03-02T02:10:07;6.00;99.90
20700;DHT22;10511;51.232;9.420;2024-03-02T02:12:35;5.70;99.90
20700;DHT22;10511;51.232;9.420;2024-03-02T02:15:02;5.50;99.90
20700;DHT22;10511;51.232;9.420;2024-03-02T02:17:30;5.50;99.90
20700;DHT22;10511;51.232;9.420;2024-03-02T02:19:57;5.60;99.90
20700;DHT22;10511;51.232;9.420;2024-03-02T02:22:25;5.60;99.90
20700;DHT22;10511;51.232;9.420;2024-03-02T02:24:52;5.50;99.90
20700;DHT22;10511;51.232;9.420;2024-03-02T02:27:19;5.40;99.90
20700;DHT22;10511;51.232;9.420;2024-03-02T02:29:45;5.40;99.90
20700;DHT22;10511;51.232;9.420;2024-03-02T02:32:12;5.40;99.90
20700;DHT22;10511;51.232;9.420;2024-03-02T02:34:39;5.40;99.90
20700;DHT22;10511;51.232;9.420;2024-03-02T02:37:06;5.40;99.90
20700;DHT22;10511;51.232;9.420;2024-03-02T02:39:34;5.40;99.90
20700;DHT22;10511;51.232;9.420;2024-03-02T02:42:01;5.20;99.90
20700;DHT22;10511;51.232;9.420;2024-03-02T02:44:28;5.10;99.90
20700;DHT22;10511;51.232;9.420;2024-03-02T02:46:55;5.00;99.90
20700;DHT22;10511;51.232;9.420;2024-03-02T02:49:22;4.90;99.90
20700;DHT22;10511;51.232;9.420;2024-03-02T02:51:49;4.90;99.90
20700;DHT22;10511;51.232;9.420;2024-03-02T02:54:16;4.90;99.90
20700;DHT22;10511;51.232;9.420;2024-03-02T02:56:44;4.90;99.90
20700;DHT22;10511;51.232;9.420;2024-03-02T02:59:11;5.00;99.90
20700;DHT22;10511;51.232;9.420;2024-03-02T03:01:38;5.10;99.90
20700;DHT22;10511;51.232;9.420;2024-03-02T03:04:05;5.30;99.90
20700;DHT22;10511;51.232;9.420;2024-03-02T03:06:32;5.40;99.90
20700;DHT22;10511;51.232;9.420;2024-03-02T03:08:59;5.40;99.90
20700;DHT22;10511;51.232;9.420;2024-03-02T03:11:25;5.40;99.90
20700;DHT22;10511;51.232;9.420;2024-03-02T03:13:54;5.30;99.90
20700;DHT22;10511;51.232;9.420;2024-03-02T03:16:21;5.10;99.90
20700;DHT22;10511;51.232;9.420;2024-03-02T03:18:48;5.10;99.90
20700;DHT22;10511;51.232;9.420;2024-03-02T03:21:17;5.20;99.90
20700;DHT22;10511;51.232;9.420;2024-03-02T03:23:43;5.40;99.90
20700;DHT22;10511;51.232;9.420;2024-03-02T03:26:10;5.50;99.90
20700;DHT22;10511;51.232;9.420;2024-03-02T03:28:37;5.40;99.90
20700;DHT22;10511;51.232;9.420;2024-03-02T03:31:05;5.30;99.90
20700;DHT22;10511;51.232;9.420;2024-03-02T03:33:32;5.30;99.90
20700;DHT22;10511;51.232;9.420;2024-03-02T03:36:00;5.30;99.90
20700;DHT22;10511;51.232;9.420;2024-03-02T03:38:29;5.30;99.90
20700;DHT22;10511;51.232;9.420;2024-03-02T03:40:56;5.30;99.90
20700;DHT22;10511;51.232;9.420;2024-03-02T03:43:23;5.30;99.90
20700;DHT22;10511;51.232;9.420;2024-03-02T03:45:50;5.30;99.90
20700;DHT22;10511;51.232;9.420;2024-03-02T03:48:18;5.20;99.90
20700;DHT22;10511;51.232;9.420;2024-03-02T03:50:45;5.20;99.90
20700;DHT22;10511;51.232;9.420;2024-03-02T03:53:12;5.10;99.90
20700;DHT22;10511;51.232;9.420;2024-03-02T03:55:40;5.10;99.90
20700;DHT22;10511;51.232;9.420;2024-03-02T03:58:07;5.20;99.90
20700;DHT22;10511;51.232;9.420;2024-03-02T04:00:33;5.30;99.90
20700;DHT22;10511;51.232;9.420;2024-03-02T04:03:00;5.30;99.90
20700;DHT22;10511;51.232;9.420;2024-03-02T04:05:28;5.30;99.90
20700;DHT22;10511;51.232;9.420;2024-03-02T04:07:55;5.30;99.90
20700;DHT22;10511;51.232;9.420;2024-03-02T04:10:22;5.20;99.90
20700;DHT22;10511;51.232;9.420;2024-03-02T04:12:50;5.10;99.90
20700;DHT22;10511;51.232;9.420;2024-03-02T04:15:17;5.10;99.90
20700;DHT22;10511;51.232;9.420;2024-03-02T04:17:44;5.30;99.90
20700;DHT22;10511;51.232;9.420;2024-03-02T04:20:11;5.40;99.90
20700;DHT22;10511;51.232;9.420;2024-03-02T04:22:40;5.50;99.90
20700;DHT22;10511;51.232;9.420;2024-03-02T04:25:08;5.50;99.90
20700;DHT22;10511;51.232;9.420;2024-03-02T04:27:35;5.50;99.90
20700;DHT22;10511;51.232;9.420;2024-03-02T04:30:02;5.50;99.90
20700;DHT22;10511;51.232;9.420;2024-03-02T04:32:29;5.50;99.90
20700;DHT22;10511;51.232;9.420;2024-03-02T04:34:56;5.50;99.90
20700;DHT22;10511;51.232;9.420;2024-03-02T04:37:22;5.30;99.90
20700;DHT22;10511;51.232;9.420;2024-03-02T04:39:51;5.30;99.90
20700;DHT22;10511;51.232;9.420;2024-03-02T04:42:17;5.30;99.90
20700;DHT22;10511;51.232;9.420;2024-03-02T04:44:44;5.30;99.90
20700;DHT22;10511;51.232;9.420;2024-03-02T04:47:11;5.10;99.90
20700;DHT22;10511;51.232;9.420;2024-03-02T04:49:38;5.10;99.90
20700;DHT22;10511;51.232;9.420;2024-03-02T04:52:05;5.20;99.90
20700;DHT22;10511;51.232;9.420;2024-03-02T04:54:32;5.10;99.90
20700;DHT22;10511;51.232;9.420;2024-03-02T04:57:20;5.20;99.90
20700;DHT22;10511;51.232;9.420;2024-03-02T04:59:46;5.20;99.90
20700;DHT22;10511;51.232;9.420;2024-03-02T05:02:13;5.20;99.90
20700;DHT22;10511;51.232;9.420;2024-03-02T05:04:40;5.20;99.90
20700;DHT22;10511;51.232;9.420;2024-03-02T05:07:07;5.20;99.90
20700;DHT22;10511;51.232;9.420;2024-03-02T05:09:34;5.30;99.90
20700;DHT22;10511;51.232;9.420;2024-03-02T05:12:01;5.30;99.90
20700;DHT22;10511;51.232;9.420;2024-03-02T05:14:56;5.30;99.90
20700;DHT22;10511;51.232;9.420;2024-03-02T05:17:23;5.30;99.90
20700;DHT22;10511;51.232;9.420;2024-03-02T05:19:49;5.30;99.90
20700;DHT22;10511;51.232;9.420;2024-03-02T05:22:16;5.20;99.90
20700;DHT22;10511;51.232;9.420;2024-03-02T05:24:43;5.30;99.90
20700;DHT22;10511;51.232;9.420;2024-03-02T05:27:10;5.30;99.90
20700;DHT22;10511;51.232;9.420;2024-03-02T05:29:37;5.20;99.90
20700;DHT22;10511;51.232;9.420;2024-03-02T05:32:05;5.20;99.90
20700;DHT22;10511;51.232;9.420;2024-03-02T05:34:32;5.20;99.90
20700;DHT22;10511;51.232;9.420;2024-03-02T05:37:01;5.10;99.90
20700;DHT22;10511;51.232;9.420;2024-03-02T05:39:27;5.10;99.90
20700;DHT22;10511;51.232;9.420;2024-03-02T05:41:54;5.10;99.90
20700;DHT22;10511;51.232;9.420;2024-03-02T05:44:21;5.00;99.90
20700;DHT22;10511;51.232;9.420;2024-03-02T05:46:48;5.00;99.90
20700;DHT22;10511;51.232;9.420;2024-03-02T05:49:16;5.10;99.90
20700;DHT22;10511;51.232;9.420;2024-03-02T05:51:43;5.10;99.90
20700;DHT22;10511;51.232;9.420;2024-03-02T05:54:10;5.10;99.90
20700;DHT22;10511;51.232;9.420;2024-03-02T05:56:37;5.00;99.90
20700;DHT22;10511;51.232;9.420;2024-03-02T05:59:04;5.00;99.90
20700;DHT22;10511;51.232;9.420;2024-03-02T06:01:38;5.00;99.90
20700;DHT22;10511;51.232;9.420;2024-03-02T06:04:05;5.10;99.90
20700;DHT22;10511;51.232;9.420;2024-03-02T06:06:34;5.10;99.90
20700;DHT22;10511;51.232;9.420;2024-03-02T06:09:01;5.00;99.90
20700;DHT22;10511;51.232;9.420;2024-03-02T06:11:30;5.00;99.90
20700;DHT22;10511;51.232;9.420;2024-03-02T06:13:57;5.00;99.90
20700;DHT22;10511;51.232;9.420;2024-03-02T06:16:24;5.00;99.90
20700;DHT22;10511;51.232;9.420;2024-03-02T06:18:51;5.00;99.90
20700;DHT22;10511;51.232;9.420;2024-03-02T06:21:19;5.10;99.90
20700;DHT22;10511;51.232;9.420;2024-03-02T06:23:47;5.10;99.90
20700;DHT22;10511;51.232;9.420;2024-03-02T06:26:14;5.10;99.90
20700;DHT22;10511;51.232;9.420;2024-03-02T06:28:43;5.10;99.90
20700;DHT22;10511;51.232;9.420;2024-03-02T06:31:10;5.10;99.90
20700;DHT22;10511;51.232;9.420;2024-03-02T06:33:37;5.10;99.90
20700;DHT22;10511;51.232;9.420;2024-03-02T06:36:04;5.10;99.90
20700;DHT22;10511;51.232;9.420;2024-03-02T06:38:34;5.10;99.90
20700;DHT22;10511;51.232;9.420;2024-03-02T06:41:02;5.10;99.90
20700;DHT22;10511;51.232;9.420;2024-03-02T06:43:32;5.20;99.90
20700;DHT22;10511;51.232;9.420;2024-03-02T06:46:03;5.20;99.90
20700;DHT22;10511;51.232;9.420;2024-03-02T06:48:31;5.10;99.90
20700;DHT22;10511;51.232;9.420;2024-03-02T06:50:58;5.00;99.90
20700;DHT22;10511;51.232;9.420;2024-03-02T06:53:25;5.00;99.90
20700;DHT22;10511;51.232;9.420;2024-03-02T06:55:52;5.00;99.90
20700;DHT22;10511;51.232;9.420;2024-03-02T06:58:21;5.00;99.90
20700;DHT22;10511;51.232;9.420;2024-03-02T07:00:47;5.10;99.90
20700;DHT22;10511;51.232;9.420;2024-03-02T07:03:14;5.10;99.90
20700;DHT22;10511;51.232;9.420;2024-03-02T07:05:41;5.10;99.90
20700;DHT22;10511;51.232;9.420;2024-03-02T07:08:08;5.00;99.90
20700;DHT22;10511;51.232;9.420;2024-03-02T07:10:35;4.90;99.90
20700;DHT22;10511;51.232;9.420;2024-03-02T07:13:01;4.80;99.90
20700;DHT22;10511;51.232;9.420;2024-03-02T07:15:30;4.80;99.90
20700;DHT22;10511;51.232;9.420;2024-03-02T07:18:12;4.90;99.90
20700;DHT22;10511;51.232;9.420;2024-03-02T07:20:39;5.00;99.90
20700;DHT22;10511;51.232;9.420;2024-03-02T07:23:06;5.10;99.90
20700;DHT22;10511;51.232;9.420;2024-03-02T07:25:34;5.20;99.90
20700;DHT22;10511;51.232;9.420;2024-03-02T07:28:00;5.20;99.90
20700;DHT22;10511;51.232;9.420;2024-03-02T07:30:29;5.10;99.90
20700;DHT22;10511;51.232;9.420;2024-03-02T07:32:56;5.20;99.90
20700;DHT22;10511;51.232;9.420;2024-03-02T07:35:24;5.20;99.90
20700;DHT22;10511;51.232;9.420;2024-03-02T07:41:01;5.30;99.90
20700;DHT22;10511;51.232;9.420;2024-03-02T07:43:28;5.40;99.90
20700;DHT22;10511;51.232;9.420;2024-03-02T07:45:56;5.50;99.90
20700;DHT22;10511;51.232;9.420;2024-03-02T07:48:23;5.60;99.90
20700;DHT22;10511;51.232;9.420;2024-03-02T07:50:50;5.70;99.90
20700;DHT22;10511;51.232;9.420;2024-03-02T07:53:17;5.80;99.90
20700;DHT22;10511;51.232;9.420;2024-03-02T07:55:44;5.90;99.90
20700;DHT22;10511;51.232;9.420;2024-03-02T07:58:11;5.90;99.90
20700;DHT22;10511;51.232;9.420;2024-03-02T08:00:38;6.00;99.90
20700;DHT22;10511;51.232;9.420;2024-03-02T08:03:07;6.10;99.90
20700;DHT22;10511;51.232;9.420;2024-03-02T08:05:39;6.20;99.90
20700;DHT22;10511;51.232;9.420;2024-03-02T08:08:06;6.20;99.90
20700;DHT22;10511;51.232;9.420;2024-03-02T08:10:33;6.20;99.90
20700;DHT22;10511;51.232;9.420;2024-03-02T08:13:00;6.30;99.90
20700;DHT22;10511;51.232;9.420;2024-03-02T08:15:26;6.30;99.90
20700;DHT22;10511;51.232;9.420;2024-03-02T08:17:53;6.40;99.90
20700;DHT22;10511;51.232;9.420;2024-03-02T08:20:23;6.40;99.90
20700;DHT22;10511;51.232;9.420;2024-03-02T08:22:50;6.40;99.90
20700;DHT22;10511;51.232;9.420;2024-03-02T08:25:17;6.40;99.90
20700;DHT22;10511;51.232;9.420;2024-03-02T08:27:44;6.40;99.90
20700;DHT22;10511;51.232;9.420;2024-03-02T08:30:12;6.40;99.90
20700;DHT22;10511;51.232;9.420;2024-03-02T08:32:47;6.50;99.90
20700;DHT22;10511;51.232;9.420;2024-03-02T08:35:14;6.40;99.90
20700;DHT22;10511;51.232;9.420;2024-03-02T08:37:42;6.50;99.90
20700;DHT22;10511;51.232;9.420;2024-03-02T08:40:10;6.50;99.90
20700;DHT22;10511;51.232;9.420;2024-03-02T08:42:37;6.50;99.90
20700;DHT22;10511;51.232;9.420;2024-03-02T08:45:04;6.50;99.90
20700;DHT22;10511;51.232;9.420;2024-03-02T08:47:31;6.50;99.90
20700;DHT22;10511;51.232;9.420;2024-03-02T08:49:59;6.60;99.90
20700;DHT22;10511;51.232;9.420;2024-03-02T08:52:26;6.60;99.90
20700;DHT22;10511;51.232;9.420;2024-03-02T08:54:54;6.60;99.90
20700;DHT22;10511;51.232;9.420;2024-03-02T08:57:21;6.70;99.90
20700;DHT22;10511;51.232;9.420;2024-03-02T08:59:48;6.80;99.90
20700;DHT22;10511;51.232;9.420;2024-03-02T09:02:15;6.80;99.90
20700;DHT22;10511;51.232;9.420;2024-03-02T09:04:42;6.80;99.90
20700;DHT22;10511;51.232;9.420;2024-03-02T09:07:09;6.80;99.90
20700;DHT22;10511;51.232;9.420;2024-03-02T09:09:35;6.80;99.90
20700;DHT22;10511;51.232;9.420;2024-03-02T09:12:05;6.80;99.90
20700;DHT22;10511;51.232;9.420;2024-03-02T09:14:32;6.90;99.90
20700;DHT22;10511;51.232;9.420;2024-03-02T09:16:59;6.90;99.90
20700;DHT22;10511;51.232;9.420;2024-03-02T09:19:26;6.90;99.90
20700;DHT22;10511;51.232;9.420;2024-03-02T09:21:53;6.80;99.90
20700;DHT22;10511;51.232;9.420;2024-03-02T09:24:21;6.80;99.90
20700;DHT22;10511;51.232;9.420;2024-03-02T09:26:48;6.80;99.90
20700;DHT22;10511;51.232;9.420;2024-03-02T09:29:16;6.90;99.90
20700;DHT22;10511;51.232;9.420;2024-03-02T09:31:43;6.90;99.90
20700;DHT22;10511;51.232;9.420;2024-03-02T09:34:09;6.90;99.90
20700;DHT22;10511;51.232;9.420;2024-03-02T09:36:36;6.90;99.90
20700;DHT22;10511;51.232;9.420;2024-03-02T09:39:03;6.90;99.90
20700;DHT22;10511;51.232;9.420;2024-03-02T09:41:30;7.00;99.90
20700;DHT22;10511;51.232;9.420;2024-03-02T09:43:58;7.00;99.90
20700;DHT22;10511;51.232;9.420;2024-03-02T09:46:26;7.00;99.90
20700;DHT22;10511;51.232;9.420;2024-03-02T09:48:53;7.10;99.90
20700;DHT22;10511;51.232;9.420;2024-03-02T09:51:20;7.10;99.90
20700;DHT22;10511;51.232;9.420;2024-03-02T09:53:47;7.10;99.90
20700;DHT22;10511;51.232;9.420;2024-03-02T09:56:15;7.30;99.90
20700;DHT22;10511;51.232;9.420;2024-03-02T09:58:44;7.40;99.90
20700;DHT22;10511;51.232;9.420;2024-03-02T10:01:11;7.40;99.90
20700;DHT22;10511;51.232;9.420;2024-03-02T10:03:39;7.50;99.90
20700;DHT22;10511;51.232;9.420;2024-03-02T10:06:22;7.70;99.90
20700;DHT22;10511;51.232;9.420;2024-03-02T10:08:49;8.10;99.90
20700;DHT22;10511;51.232;9.420;2024-03-02T10:11:29;8.30;99.90
20700;DHT22;10511;51.232;9.420;2024-03-02T10:14:07;8.40;99.90
20700;DHT22;10511;51.232;9.420;2024-03-02T10:16:35;8.50;99.90
20700;DHT22;10511;51.232;9.420;2024-03-02T10:19:17;8.60;99.90
20700;DHT22;10511;51.232;9.420;2024-03-02T10:21:44;8.80;99.90
20700;DHT22;10511;51.232;9.420;2024-03-02T10:24:11;8.80;99.90
20700;DHT22;10511;51.232;9.420;2024-03-02T10:26:38;8.80;99.90
20700;DHT22;10511;51.232;9.420;2024-03-02T10:29:07;8.80;99.90
20700;DHT22;10511;51.232;9.420;2024-03-02T10:31:37;8.80;99.90
20700;DHT22;10511;51.232;9.420;2024-03-02T10:34:04;8.80;99.90
20700;DHT22;10511;51.232;9.420;2024-03-02T10:36:33;8.80;99.90
20700;DHT22;10511;51.232;9.420;2024-03-02T10:39:02;8.80;99.90
20700;DHT22;10511;51.232;9.420;2024-03-02T10:41:32;8.90;99.90
20700;DHT22;10511;51.232;9.420;2024-03-02T10:44:02;9.10;99.90
20700;DHT22;10511;51.232;9.420;2024-03-02T10:46:30;9.30;99.90
20700;DHT22;10511;51.232;9.420;2024-03-02T10:48:58;9.50;99.90
20700;DHT22;10511;51.232;9.420;2024-03-02T10:51:26;9.80;99.90
20700;DHT22;10511;51.232;9.420;2024-03-02T10:53:55;9.90;99.90
20700;DHT22;10511;51.232;9.420;2024-03-02T10:56:28;10.10;99.90
20700;DHT22;10511;51.232;9.420;2024-03-02T10:59:02;10.20;99.90
20700;DHT22;10511;51.232;9.420;2024-03-02T11:01:31;10.40;99.90
20700;DHT22;10511;51.232;9.420;2024-03-02T11:03:59;10.50;99.90
20700;DHT22;10511;51.232;9.420;2024-03-02T11:06:28;10.70;99.90
20700;DHT22;10511;51.232;9.420;2024-03-02T11:09:00;10.90;99.90
20700;DHT22;10511;51.232;9.420;2024-03-02T11:11:37;11.20;99.90
20700;DHT22;10511;51.232;9.420;2024-03-02T11:14:08;11.50;99.90
20700;DHT22;10511;51.232;9.420;2024-03-02T11:16:38;11.70;99.90
20700;DHT22;10511;51.232;9.420;2024-03-02T11:19:10;11.90;99.90
20700;DHT22;10511;51.232;9.420;2024-03-02T11:21:37;12.00;99.90
20700;DHT22;10511;51.232;9.420;2024-03-02T11:24:31;12.30;99.90
20700;DHT22;10511;51.232;9.420;2024-03-02T11:27:01;12.60;99.90
20700;DHT22;10511;51.232;9.420;2024-03-02T11:29:44;12.70;99.90
20700;DHT22;10511;51.232;9.420;2024-03-02T11:32:20;12.80;99.90
20700;DHT22;10511;51.232;9.420;2024-03-02T11:34:49;12.80;99.90
20700;DHT22;10511;51.232;9.420;2024-03-02T11:37:17;12.90;99.90
20700;DHT22;10511;51.232;9.420;2024-03-02T11:39:46;13.00;99.90
20700;DHT22;10511;51.232;9.420;2024-03-02T11:42:14;13.20;99.90
20700;DHT22;10511;51.232;9.420;2024-03-02T11:44:43;13.20;99.90
20700;DHT22;10511;51.232;9.420;2024-03-02T11:47:12;13.10;99.90
20700;DHT22;10511;51.232;9.420;2024-03-02T11:49:42;13.00;99.90
20700;DHT22;10511;51.232;9.420;2024-03-02T11:52:11;13.10;99.90
20700;DHT22;10511;51.232;9.420;2024-03-02T11:54:40;13.10;99.90
20700;DHT22;10511;51.232;9.420;2024-03-02T11:57:14;13.10;99.90
20700;DHT22;10511;51.232;9.420;2024-03-02T11:59:41;13.00;99.90
20700;DHT22;10511;51.232;9.420;2024-03-02T12:02:15;12.90;99.90
20700;DHT22;10511;51.232;9.420;2024-03-02T12:04:43;12.80;99.90
20700;DHT22;10511;51.232;9.420;2024-03-02T12:07:12;12.60;99.90
20700;DHT22;10511;51.232;9.420;2024-03-02T12:09:39;12.40;99.90
20700;DHT22;10511;51.232;9.420;2024-03-02T12:12:06;12.30;99.90
20700;DHT22;10511;51.232;9.420;2024-03-02T12:14:36;12.30;99.90
20700;DHT22;10511;51.232;9.420;2024-03-02T12:17:04;12.30;99.90
20700;DHT22;10511;51.232;9.420;2024-03-02T12:19:32;12.20;99.90
20700;DHT22;10511;51.232;9.420;2024-03-02T12:21:59;12.10;99.90
20700;DHT22;10511;51.232;9.420;2024-03-02T12:24:28;12.10;99.90
20700;DHT22;10511;51.232;9.420;2024-03-02T12:26:55;12.10;99.90
20700;DHT22;10511;51.232;9.420;2024-03-02T12:29:23;12.10;99.90
20700;DHT22;10511;51.232;9.420;2024-03-02T12:31:52;12.10;99.90
20700;DHT22;10511;51.232;9.420;2024-03-02T12:34:20;12.10;99.90
20700;DHT22;10511;51.232;9.420;2024-03-02T12:36:47;12.20;99.90
20700;DHT22;10511;51.232;9.420;2024-03-02T12:39:16;12.20;99.90
20700;DHT22;10511;51.232;9.420;2024-03-02T12:41:43;12.20;99.90
20700;DHT22;10511;51.232;9.420;2024-03-02T12:44:10;12.20;99.90
20700;DHT22;10511;51.232;9.420;2024-03-02T12:46:37;12.20;99.90
20700;DHT22;10511;51.232;9.420;2024-03-02T12:49:09;12.20;99.90
20700;DHT22;10511;51.232;9.420;2024-03-02T12:51:38;12.20;99.90
20700;DHT22;10511;51.232;9.420;2024-03-02T12:54:06;12.20;99.90
20700;DHT22;10511;51.232;9.420;2024-03-02T12:56:33;12.30;99.90
20700;DHT22;10511;51.232;9.420;2024-03-02T12:59:00;12.30;99.90
20700;DHT22;10511;51.232;9.420;2024-03-02T13:01:27;12.50;99.90
20700;DHT22;10511;51.232;9.420;2024-03-02T13:03:54;12.40;99.90
20700;DHT22;10511;51.232;9.420;2024-03-02T13:06:23;12.60;99.90
20700;DHT22;10511;51.232;9.420;2024-03-02T13:08:53;12.70;99.90
20700;DHT22;10511;51.232;9.420;2024-03-02T13:11:21;12.80;99.90
20700;DHT22;10511;51.232;9.420;2024-03-02T13:13:48;12.80;99.90
20700;DHT22;10511;51.232;9.420;2024-03-02T13:16:15;12.80;99.90
20700;DHT22;10511;51.232;9.420;2024-03-02T13:18:44;12.80;99.90
20700;DHT22;10511;51.232;9.420;2024-03-02T13:21:11;12.80;99.90
20700;DHT22;10511;51.232;9.420;2024-03-02T13:23:40;12.70;99.90
20700;DHT22;10511;51.232;9.420;2024-03-02T13:26:09;12.80;99.90
20700;DHT22;10511;51.232;9.420;2024-03-02T13:28:38;12.80;99.90
20700;DHT22;10511;51.232;9.420;2024-03-02T13:31:05;12.80;99.90
20700;DHT22;10511;51.232;9.420;2024-03-02T13:33:32;12.80;99.90
20700;DHT22;10511;51.232;9.420;2024-03-02T13:35:59;12.80;99.90
20700;DHT22;10511;51.232;9.420;2024-03-02T13:38:27;12.80;99.90
20700;DHT22;10511;51.232;9.420;2024-03-02T13:40:55;12.80;99.90
20700;DHT22;10511;51.232;9.420;2024-03-02T13:43:22;12.80;99.90
20700;DHT22;10511;51.232;9.420;2024-03-02T13:45:49;12.80;99.90
20700;DHT22;10511;51.232;9.420;2024-03-02T13:48:17;12.80;99.90
20700;DHT22;10511;51.232;9.420;2024-03-02T13:50:44;12.80;99.90
20700;DHT22;10511;51.232;9.420;2024-03-02T13:53:12;12.90;99.90
20700;DHT22;10511;51.232;9.420;2024-03-02T13:55:39;12.90;99.90
20700;DHT22;10511;51.232;9.420;2024-03-02T13:58:08;13.00;99.90
20700;DHT22;10511;51.232;9.420;2024-03-02T14:00:36;13.00;99.90
20700;DHT22;10511;51.232;9.420;2024-03-02T14:03:04;13.10;99.90
20700;DHT22;10511;51.232;9.420;2024-03-02T14:05:32;12.90;99.90
20700;DHT22;10511;51.232;9.420;2024-03-02T14:07:59;13.00;99.90
20700;DHT22;10511;51.232;9.420;2024-03-02T14:10:26;12.90;99.90
20700;DHT22;10511;51.232;9.420;2024-03-02T14:12:54;12.90;99.90
20700;DHT22;10511;51.232;9.420;2024-03-02T14:15:23;12.80;99.90
20700;DHT22;10511;51.232;9.420;2024-03-02T14:17:50;12.80;99.90
20700;DHT22;10511;51.232;9.420;2024-03-02T14:20:17;12.80;99.90
20700;DHT22;10511;51.232;9.420;2024-03-02T14:22:47;12.70;99.90
20700;DHT22;10511;51.232;9.420;2024-03-02T14:25:14;12.80;99.90
20700;DHT22;10511;51.232;9.420;2024-03-02T14:27:42;12.80;99.90
20700;DHT22;10511;51.232;9.420;2024-03-02T14:30:09;12.70;99.90
20700;DHT22;10511;51.232;9.420;2024-03-02T14:32:38;12.70;99.90
20700;DHT22;10511;51.232;9.420;2024-03-02T14:35:05;12.60;99.90
20700;DHT22;10511;51.232;9.420;2024-03-02T14:37:35;12.60;99.90
20700;DHT22;10511;51.232;9.420;2024-03-02T14:40:03;12.60;99.90
20700;DHT22;10511;51.232;9.420;2024-03-02T14:42:32;12.60;99.90
20700;DHT22;10511;51.232;9.420;2024-03-02T14:44:59;12.60;99.90
20700;DHT22;10511;51.232;9.420;2024-03-02T14:47:28;12.50;99.90
20700;DHT22;10511;51.232;9.420;2024-03-02T14:49:56;12.50;99.90
20700;DHT22;10511;51.232;9.420;2024-03-02T14:52:23;12.60;99.90
20700;DHT22;10511;51.232;9.420;2024-03-02T14:54:50;12.60;99.90
20700;DHT22;10511;51.232;9.420;2024-03-02T14:57:17;12.70;99.90
20700;DHT22;10511;51.232;9.420;2024-03-02T14:59:44;12.70;99.90
20700;DHT22;10511;51.232;9.420;2024-03-02T15:02:10;12.70;99.90
20700;DHT22;10511;51.232;9.420;2024-03-02T15:04:37;12.80;99.90
20700;DHT22;10511;51.232;9.420;2024-03-02T15:07:06;12.80;99.90
20700;DHT22;10511;51.232;9.420;2024-03-02T15:09:33;12.80;99.90
20700;DHT22;10511;51.232;9.420;2024-03-02T15:12:01;12.80;99.90
20700;DHT22;10511;51.232;9.420;2024-03-02T15:14:28;12.70;99.90
20700;DHT22;10511;51.232;9.420;2024-03-02T15:16:55;12.70;99.90
20700;DHT22;10511;51.232;9.420;2024-03-02T15:19:23;12.70;99.90
20700;DHT22;10511;51.232;9.420;2024-03-02T15:21:50;12.70;99.90
20700;DHT22;10511;51.232;9.420;2024-03-02T15:24:18;12.60;99.90
20700;DHT22;10511;51.232;9.420;2024-03-02T15:26:45;12.60;99.90
20700;DHT22;10511;51.232;9.420;2024-03-02T15:29:12;12.60;99.90
20700;DHT22;10511;51.232;9.420;2024-03-02T15:31:39;12.50;99.90
20700;DHT22;10511;51.232;9.420;2024-03-02T15:34:06;12.40;99.90
20700;DHT22;10511;51.232;9.420;2024-03-02T15:36:33;12.50;99.90
20700;DHT22;10511;51.232;9.420;2024-03-02T15:39:01;12.50;99.90
20700;DHT22;10511;51.232;9.420;2024-03-02T15:41:35;12.50;99.90
20700;DHT22;10511;51.232;9.420;2024-03-02T15:44:02;12.50;99.90
20700;DHT22;10511;51.232;9.420;2024-03-02T15:46:29;12.50;99.90
20700;DHT22;10511;51.232;9.420;2024-03-02T15:48:56;12.50;99.90
20700;DHT22;10511;51.232;9.420;2024-03-02T15:51:23;12.40;99.90